sensor_id;sensor_type;location;lat;lon;timestamp;P1;durP1;ratioP1;P2;durP2;ratioP2
39400;SDS011;54391;50.000;7.360;2022-07-11T00:01:36;6.30;;;2.90;;
39400;SDS011;54391;50.000;7.360;2022-07-11T00:04:05;6.43;;;2.95;;
39400;SDS011;54391;50.000;7.360;2022-07-11T00:06:33;9.25;;;3.05;;
39400;SDS011;54391;50.000;7.360;2022-07-11T00:09:00;5.22;;;3.08;;
39400;SDS011;54391;50.000;7.360;2022-07-11T00:11:28;5.15;;;2.95;;
39400;SDS011;54391;50.000;7.360;2022-07-11T00:13:56;5.05;;;2.58;;
39400;SDS011;54391;50.000;7.360;2022-07-11T00:16:23;7.57;;;2.88;;
39400;SDS011;54391;50.000;7.360;2022-07-11T00:18:50;4.43;;;2.88;;
39400;SDS011;54391;50.000;7.360;2022-07-11T00:21:19;6.20;;;3.05;;
39400;SDS011;54391;50.000;7.360;2022-07-11T00:23:47;5.20;;;2.85;;
39400;SDS011;54391;50.000;7.360;2022-07-11T00:26:14;5.50;;;2.92;;
39400;SDS011;54391;50.000;7.360;2022-07-11T00:28:42;5.30;;;3.25;;
39400;SDS011;54391;50.000;7.360;2022-07-11T00:31:09;5.75;;;3.00;;
39400;SDS011;54391;50.000;7.360;2022-07-11T00:33:37;9.25;;;3.20;;
39400;SDS011;54391;50.000;7.360;2022-07-11T00:36:05;6.95;;;2.95;;
39400;SDS011;54391;50.000;7.360;2022-07-11T00:38:34;4.05;;;2.88;;
39400;SDS011;54391;50.000;7.360;2022-07-11T00:41:02;5.55;;;3.15;;
39400;SDS011;54391;50.000;7.360;2022-07-11T00:43:30;5.15;;;2.88;;
39400;SDS011;54391;50.000;7.360;2022-07-11T00:45:58;5.82;;;3.13;;
39400;SDS011;54391;50.000;7.360;2022-07-11T00:48:27;4.05;;;2.65;;
39400;SDS011;54391;50.000;7.360;2022-07-11T00:50:55;4.78;;;2.92;;
39400;SDS011;54391;50.000;7.360;2022-07-11T00:53:23;5.10;;;3.47;;
39400;SDS011;54391;50.000;7.360;2022-07-11T00:55:52;6.38;;;2.78;;
39400;SDS011;54391;50.000;7.360;2022-07-11T00:58:20;4.70;;;2.83;;
39400;SDS011;54391;50.000;7.360;2022-07-11T01:00:49;5.53;;;3.55;;
39400;SDS011;54391;50.000;7.360;2022-07-11T01:03:16;10.73;;;3.20;;
39400;SDS011;54391;50.000;7.360;2022-07-11T01:05:44;4.25;;;3.17;;
39400;SDS011;54391;50.000;7.360;2022-07-11T01:08:12;6.53;;;3.05;;
39400;SDS011;54391;50.000;7.360;2022-07-11T01:10:39;5.55;;;3.00;;
39400;SDS011;54391;50.000;7.360;2022-07-11T01:13:08;8.10;;;2.70;;
39400;SDS011;54391;50.000;7.360;2022-07-11T01:15:36;4.97;;;3.00;;
39400;SDS011;54391;50.000;7.360;2022-07-11T01:18:04;6.28;;;3.40;;
39400;SDS011;54391;50.000;7.360;2022-07-11T01:20:31;4.88;;;3.40;;
39400;SDS011;54391;50.000;7.360;2022-07-11T01:23:02;9.35;;;3.10;;
39400;SDS011;54391;50.000;7.360;2022-07-11T01:25:29;5.40;;;2.80;;
39400;SDS011;54391;50.000;7.360;2022-07-11T01:27:57;5.90;;;3.28;;
39400;SDS011;54391;50.000;7.360;2022-07-11T01:30:29;7.40;;;3.10;;
39400;SDS011;54391;50.000;7.360;2022-07-11T01:32:58;4.80;;;3.10;;
39400;SDS011;54391;50.000;7.360;2022-07-11T01:35:27;3.70;;;2.80;;
39400;SDS011;54391;50.000;7.360;2022-07-11T01:37:56;4.40;;;2.88;;
39400;SDS011;54391;50.000;7.360;2022-07-11T01:40:24;4.82;;;3.30;;
39400;SDS011;54391;50.000;7.360;2022-07-11T01:42:52;4.85;;;3.00;;
39400;SDS011;54391;50.000;7.360;2022-07-11T01:45:19;4.40;;;3.05;;
39400;SDS011;54391;50.000;7.360;2022-07-11T01:47:47;5.43;;;2.72;;
39400;SDS011;54391;50.000;7.360;2022-07-11T01:50:14;5.63;;;2.58;;
39400;SDS011;54391;50.000;7.360;2022-07-11T01:52:42;5.15;;;3.00;;
39400;SDS011;54391;50.000;7.360;2022-07-11T01:55:09;4.68;;;2.90;;
39400;SDS011;54391;50.000;7.360;2022-07-11T01:57:39;4.07;;;2.45;;
39400;SDS011;54391;50.000;7.360;2022-07-11T02:00:07;5.68;;;2.90;;
39400;SDS011;54391;50.000;7.360;2022-07-11T02:02:36;6.18;;;3.00;;
39400;SDS011;54391;50.000;7.360;2022-07-11T02:05:04;4.88;;;3.22;;
39400;SDS011;54391;50.000;7.360;2022-07-11T02:07:32;9.90;;;3.38;;
39400;SDS011;54391;50.000;7.360;2022-07-11T02:10:17;5.18;;;3.00;;
39400;SDS011;54391;50.000;7.360;2022-07-11T02:12:45;3.95;;;3.17;;
39400;SDS011;54391;50.000;7.360;2022-07-11T02:15:13;6.55;;;3.10;;
39400;SDS011;54391;50.000;7.360;2022-07-11T02:17:40;5.07;;;3.20;;
39400;SDS011;54391;50.000;7.360;2022-07-11T02:20:08;4.78;;;3.00;;
39400;SDS011;54391;50.000;7.360;2022-07-11T02:22:36;4.72;;;2.90;;
39400;SDS011;54391;50.000;7.360;2022-07-11T02:25:04;4.35;;;2.90;;
39400;SDS011;54391;50.000;7.360;2022-07-11T02:27:32;5.25;;;3.30;;
39400;SDS011;54391;50.000;7.360;2022-07-11T02:30:01;3.85;;;3.30;;
39400;SDS011;54391;50.000;7.360;2022-07-11T02:32:29;7.88;;;3.05;;
39400;SDS011;54391;50.000;7.360;2022-07-11T02:34:56;4.22;;;2.90;;
39400;SDS011;54391;50.000;7.360;2022-07-11T02:37:24;5.63;;;2.63;;
39400;SDS011;54391;50.000;7.360;2022-07-11T02:39:51;3.20;;;2.35;;
39400;SDS011;54391;50.000;7.360;2022-07-11T02:42:19;5.82;;;2.63;;
39400;SDS011;54391;50.000;7.360;2022-07-11T02:44:46;4.90;;;2.90;;
39400;SDS011;54391;50.000;7.360;2022-07-11T02:47:15;5.45;;;2.85;;
39400;SDS011;54391;50.000;7.360;2022-07-11T02:49:42;4.53;;;3.00;;
39400;SDS011;54391;50.000;7.360;2022-07-11T02:52:10;9.50;;;3.38;;
39400;SDS011;54391;50.000;7.360;2022-07-11T02:54:37;4.38;;;2.40;;
39400;SDS011;54391;50.000;7.360;2022-07-11T02:57:05;5.10;;;2.95;;
39400;SDS011;54391;50.000;7.360;2022-07-11T02:59:33;5.60;;;3.20;;
39400;SDS011;54391;50.000;7.360;2022-07-11T03:02:00;3.80;;;2.83;;
39400;SDS011;54391;50.000;7.360;2022-07-11T03:04:31;3.63;;;2.30;;
39400;SDS011;54391;50.000;7.360;2022-07-11T03:06:59;7.63;;;3.33;;
39400;SDS011;54391;50.000;7.360;2022-07-11T03:09:27;3.40;;;2.50;;
39400;SDS011;54391;50.000;7.360;2022-07-11T03:11:54;4.10;;;2.83;;
39400;SDS011;54391;50.000;7.360;2022-07-11T03:14:22;5.35;;;2.70;;
39400;SDS011;54391;50.000;7.360;2022-07-11T03:16:49;5.38;;;2.60;;
39400;SDS011;54391;50.000;7.360;2022-07-11T03:19:17;4.63;;;2.90;;
39400;SDS011;54391;50.000;7.360;2022-07-11T03:21:46;3.50;;;2.70;;
39400;SDS011;54391;50.000;7.360;2022-07-11T03:24:13;4.10;;;2.60;;
39400;SDS011;54391;50.000;7.360;2022-07-11T03:26:41;5.93;;;3.03;;
39400;SDS011;54391;50.000;7.360;2022-07-11T03:29:08;5.55;;;2.58;;
39400;SDS011;54391;50.000;7.360;2022-07-11T03:31:36;8.15;;;3.22;;
39400;SDS011;54391;50.000;7.360;2022-07-11T03:34:03;4.50;;;2.92;;
39400;SDS011;54391;50.000;7.360;2022-07-11T03:36:31;5.57;;;2.90;;
39400;SDS011;54391;50.000;7.360;2022-07-11T03:38:59;6.45;;;3.10;;
39400;SDS011;54391;50.000;7.360;2022-07-11T03:41:27;11.68;;;3.03;;
39400;SDS011;54391;50.000;7.360;2022-07-11T03:43:54;5.32;;;2.92;;
39400;SDS011;54391;50.000;7.360;2022-07-11T03:46:22;4.55;;;3.03;;
39400;SDS011;54391;50.000;7.360;2022-07-11T03:48:49;5.57;;;2.65;;
39400;SDS011;54391;50.000;7.360;2022-07-11T03:51:17;5.18;;;2.88;;
39400;SDS011;54391;50.000;7.360;2022-07-11T03:53:44;5.70;;;3.33;;
39400;SDS011;54391;50.000;7.360;2022-07-11T03:56:13;6.18;;;3.40;;
39400;SDS011;54391;50.000;7.360;2022-07-11T03:58:42;5.13;;;2.85;;
39400;SDS011;54391;50.000;7.360;2022-07-11T04:01:09;6.72;;;2.97;;
39400;SDS011;54391;50.000;7.360;2022-07-11T04:03:37;4.13;;;3.05;;
39400;SDS011;54391;50.000;7.360;2022-07-11T04:06:04;3.70;;;2.65;;
39400;SDS011;54391;50.000;7.360;2022-07-11T04:08:32;7.78;;;3.25;;
39400;SDS011;54391;50.000;7.360;2022-07-11T04:10:59;6.50;;;3.00;;
39400;SDS011;54391;50.000;7.360;2022-07-11T04:13:30;8.32;;;3.22;;
39400;SDS011;54391;50.000;7.360;2022-07-11T04:15:58;8.27;;;3.03;;
39400;SDS011;54391;50.000;7.360;2022-07-11T04:18:27;6.57;;;2.70;;
39400;SDS011;54391;50.000;7.360;2022-07-11T04:20:55;4.97;;;2.85;;
39400;SDS011;54391;50.000;7.360;2022-07-11T04:23:22;4.25;;;2.75;;
39400;SDS011;54391;50.000;7.360;2022-07-11T04:25:50;7.63;;;3.75;;
39400;SDS011;54391;50.000;7.360;2022-07-11T04:28:17;6.00;;;2.90;;
39400;SDS011;54391;50.000;7.360;2022-07-11T04:30:46;6.72;;;3.03;;
39400;SDS011;54391;50.000;7.360;2022-07-11T04:33:14;6.68;;;2.90;;
39400;SDS011;54391;50.000;7.360;2022-07-11T04:35:41;2.97;;;2.40;;
39400;SDS011;54391;50.000;7.360;2022-07-11T04:38:10;3.95;;;2.80;;
39400;SDS011;54391;50.000;7.360;2022-07-11T04:40:38;5.10;;;3.13;;
39400;SDS011;54391;50.000;7.360;2022-07-11T04:43:05;5.88;;;3.15;;
39400;SDS011;54391;50.000;7.360;2022-07-11T04:45:32;4.55;;;3.22;;
39400;SDS011;54391;50.000;7.360;2022-07-11T04:48:01;3.88;;;2.83;;
39400;SDS011;54391;50.000;7.360;2022-07-11T04:50:29;5.35;;;3.38;;
39400;SDS011;54391;50.000;7.360;2022-07-11T04:52:56;4.60;;;2.90;;
39400;SDS011;54391;50.000;7.360;2022-07-11T04:55:24;4.65;;;2.50;;
39400;SDS011;54391;50.000;7.360;2022-07-11T04:57:52;5.32;;;2.75;;
39400;SDS011;54391;50.000;7.360;2022-07-11T05:00:19;4.00;;;2.30;;
39400;SDS011;54391;50.000;7.360;2022-07-11T05:02:47;2.97;;;2.60;;
39400;SDS011;54391;50.000;7.360;2022-07-11T05:05:16;7.07;;;3.00;;
39400;SDS011;54391;50.000;7.360;2022-07-11T05:07:45;7.57;;;2.75;;
39400;SDS011;54391;50.000;7.360;2022-07-11T05:10:12;4.57;;;2.90;;
39400;SDS011;54391;50.000;7.360;2022-07-11T05:12:40;4.03;;;2.30;;
39400;SDS011;54391;50.000;7.360;2022-07-11T05:15:08;5.05;;;2.90;;
39400;SDS011;54391;50.000;7.360;2022-07-11T05:17:36;3.53;;;2.65;;
39400;SDS011;54391;50.000;7.360;2022-07-11T05:20:04;3.92;;;2.97;;
39400;SDS011;54391;50.000;7.360;2022-07-11T05:22:33;5.20;;;2.50;;
39400;SDS011;54391;50.000;7.360;2022-07-11T05:25:01;6.10;;;2.55;;
39400;SDS011;54391;50.000;7.360;2022-07-11T05:27:28;8.93;;;3.63;;
39400;SDS011;54391;50.000;7.360;2022-07-11T05:29:56;5.45;;;2.97;;
39400;SDS011;54391;50.000;7.360;2022-07-11T05:32:23;5.28;;;2.50;;
39400;SDS011;54391;50.000;7.360;2022-07-11T05:34:51;3.80;;;2.75;;
39400;SDS011;54391;50.000;7.360;2022-07-11T05:37:18;6.10;;;2.75;;
39400;SDS011;54391;50.000;7.360;2022-07-11T05:39:47;4.35;;;2.58;;
39400;SDS011;54391;50.000;7.360;2022-07-11T05:42:16;5.60;;;3.03;;
39400;SDS011;54391;50.000;7.360;2022-07-11T05:44:43;4.90;;;2.65;;
39400;SDS011;54391;50.000;7.360;2022-07-11T05:47:10;5.93;;;2.88;;
39400;SDS011;54391;50.000;7.360;2022-07-11T05:49:38;5.60;;;4.07;;
39400;SDS011;54391;50.000;7.360;2022-07-11T05:52:06;7.53;;;4.22;;
39400;SDS011;54391;50.000;7.360;2022-07-11T05:54:34;6.32;;;3.50;;
39400;SDS011;54391;50.000;7.360;2022-07-11T05:57:03;6.32;;;3.60;;
39400;SDS011;54391;50.000;7.360;2022-07-11T05:59:31;5.90;;;3.75;;
39400;SDS011;54391;50.000;7.360;2022-07-11T06:02:00;5.18;;;3.30;;
39400;SDS011;54391;50.000;7.360;2022-07-11T06:04:28;9.63;;;4.05;;
39400;SDS011;54391;50.000;7.360;2022-07-11T06:06:56;5.70;;;3.33;;
39400;SDS011;54391;50.000;7.360;2022-07-11T06:09:23;5.57;;;3.50;;
39400;SDS011;54391;50.000;7.360;2022-07-11T06:11:50;7.03;;;3.20;;
39400;SDS011;54391;50.000;7.360;2022-07-11T06:14:19;4.63;;;3.28;;
39400;SDS011;54391;50.000;7.360;2022-07-11T06:16:47;9.48;;;3.55;;
39400;SDS011;54391;50.000;7.360;2022-07-11T06:19:15;10.80;;;4.50;;
39400;SDS011;54391;50.000;7.360;2022-07-11T06:21:42;10.50;;;4.50;;
39400;SDS011;54391;50.000;7.360;2022-07-11T06:24:10;8.00;;;4.80;;
39400;SDS011;54391;50.000;7.360;2022-07-11T06:26:37;11.30;;;5.20;;
39400;SDS011;54391;50.000;7.360;2022-07-11T06:29:06;12.02;;;5.75;;
39400;SDS011;54391;50.000;7.360;2022-07-11T06:31:35;10.50;;;5.65;;
39400;SDS011;54391;50.000;7.360;2022-07-11T06:34:03;9.73;;;5.45;;
39400;SDS011;54391;50.000;7.360;2022-07-11T06:36:30;9.98;;;4.93;;
39400;SDS011;54391;50.000;7.360;2022-07-11T06:38:58;9.50;;;5.50;;
39400;SDS011;54391;50.000;7.360;2022-07-11T06:41:27;10.23;;;5.97;;
39400;SDS011;54391;50.000;7.360;2022-07-11T06:43:54;10.27;;;5.60;;
39400;SDS011;54391;50.000;7.360;2022-07-11T06:46:22;13.27;;;6.43;;
39400;SDS011;54391;50.000;7.360;2022-07-11T06:48:53;11.63;;;5.78;;
39400;SDS011;54391;50.000;7.360;2022-07-11T06:51:21;11.30;;;5.45;;
39400;SDS011;54391;50.000;7.360;2022-07-11T06:53:48;11.18;;;5.78;;
39400;SDS011;54391;50.000;7.360;2022-07-11T06:56:18;11.20;;;5.50;;
39400;SDS011;54391;50.000;7.360;2022-07-11T06:58:46;8.65;;;5.20;;
39400;SDS011;54391;50.000;7.360;2022-07-11T07:01:13;9.23;;;5.15;;
39400;SDS011;54391;50.000;7.360;2022-07-11T07:03:41;8.20;;;4.53;;
39400;SDS011;54391;50.000;7.360;2022-07-11T07:06:09;8.27;;;5.57;;
39400;SDS011;54391;50.000;7.360;2022-07-11T07:08:37;12.32;;;5.40;;
39400;SDS011;54391;50.000;7.360;2022-07-11T07:11:05;8.63;;;5.13;;
39400;SDS011;54391;50.000;7.360;2022-07-11T07:13:32;11.02;;;6.80;;
39400;SDS011;54391;50.000;7.360;2022-07-11T07:16:00;11.57;;;6.78;;
39400;SDS011;54391;50.000;7.360;2022-07-11T07:18:30;13.35;;;7.03;;
39400;SDS011;54391;50.000;7.360;2022-07-11T07:20:57;10.30;;;6.28;;
39400;SDS011;54391;50.000;7.360;2022-07-11T07:23:26;16.33;;;7.03;;
39400;SDS011;54391;50.000;7.360;2022-07-11T07:25:53;13.32;;;7.30;;
39400;SDS011;54391;50.000;7.360;2022-07-11T07:28:21;13.02;;;7.93;;
39400;SDS011;54391;50.000;7.360;2022-07-11T07:30:49;12.07;;;7.88;;
39400;SDS011;54391;50.000;7.360;2022-07-11T07:33:16;14.75;;;8.68;;
39400;SDS011;54391;50.000;7.360;2022-07-11T07:35:44;13.05;;;7.63;;
39400;SDS011;54391;50.000;7.360;2022-07-11T07:38:11;10.70;;;7.47;;
39400;SDS011;54391;50.000;7.360;2022-07-11T07:40:40;13.57;;;7.78;;
39400;SDS011;54391;50.000;7.360;2022-07-11T07:43:08;14.65;;;8.52;;
39400;SDS011;54391;50.000;7.360;2022-07-11T07:45:38;15.60;;;8.85;;
39400;SDS011;54391;50.000;7.360;2022-07-11T07:48:06;15.10;;;8.93;;
39400;SDS011;54391;50.000;7.360;2022-07-11T07:50:33;13.07;;;8.40;;
39400;SDS011;54391;50.000;7.360;2022-07-11T07:53:01;15.63;;;8.50;;
39400;SDS011;54391;50.000;7.360;2022-07-11T07:55:28;14.10;;;8.93;;
39400;SDS011;54391;50.000;7.360;2022-07-11T07:57:58;15.07;;;8.77;;
39400;SDS011;54391;50.000;7.360;2022-07-11T08:00:25;16.40;;;8.82;;
39400;SDS011;54391;50.000;7.360;2022-07-11T08:03:10;12.00;;;7.53;;
39400;SDS011;54391;50.000;7.360;2022-07-11T08:05:37;15.07;;;9.05;;
39400;SDS011;54391;50.000;7.360;2022-07-11T08:08:05;15.70;;;8.82;;
39400;SDS011;54391;50.000;7.360;2022-07-11T08:10:33;14.80;;;8.63;;
39400;SDS011;54391;50.000;7.360;2022-07-11T08:13:02;14.98;;;8.50;;
39400;SDS011;54391;50.000;7.360;2022-07-11T08:15:33;16.13;;;9.15;;
39400;SDS011;54391;50.000;7.360;2022-07-11T08:18:03;18.70;;;8.63;;
39400;SDS011;54391;50.000;7.360;2022-07-11T08:20:33;14.73;;;8.70;;
39400;SDS011;54391;50.000;7.360;2022-07-11T08:23:01;13.23;;;8.80;;
39400;SDS011;54391;50.000;7.360;2022-07-11T08:25:30;15.68;;;9.55;;
39400;SDS011;54391;50.000;7.360;2022-07-11T08:27:58;17.67;;;9.68;;
39400;SDS011;54391;50.000;7.360;2022-07-11T08:30:28;16.05;;;9.07;;
39400;SDS011;54391;50.000;7.360;2022-07-11T08:32:56;18.92;;;9.15;;
39400;SDS011;54391;50.000;7.360;2022-07-11T08:35:23;14.15;;;8.80;;
39400;SDS011;54391;50.000;7.360;2022-07-11T08:37:51;17.33;;;8.93;;
39400;SDS011;54391;50.000;7.360;2022-07-11T08:40:18;19.77;;;9.65;;
39400;SDS011;54391;50.000;7.360;2022-07-11T08:42:46;18.88;;;8.55;;
39400;SDS011;54391;50.000;7.360;2022-07-11T08:45:14;18.80;;;10.15;;
39400;SDS011;54391;50.000;7.360;2022-07-11T08:47:43;18.50;;;8.55;;
39400;SDS011;54391;50.000;7.360;2022-07-11T08:50:11;15.90;;;8.90;;
39400;SDS011;54391;50.000;7.360;2022-07-11T08:52:39;16.85;;;8.38;;
39400;SDS011;54391;50.000;7.360;2022-07-11T08:55:07;15.77;;;8.68;;
39400;SDS011;54391;50.000;7.360;2022-07-11T08:57:35;15.70;;;9.15;;
39400;SDS011;54391;50.000;7.360;2022-07-11T09:00:03;17.85;;;9.10;;
39400;SDS011;54391;50.000;7.360;2022-07-11T09:02:35;14.10;;;9.00;;
39400;SDS011;54391;50.000;7.360;2022-07-11T09:05:04;19.40;;;10.68;;
39400;SDS011;54391;50.000;7.360;2022-07-11T09:07:33;18.08;;;10.35;;
39400;SDS011;54391;50.000;7.360;2022-07-11T09:10:02;19.27;;;11.05;;
39400;SDS011;54391;50.000;7.360;2022-07-11T09:12:30;21.40;;;11.75;;
39400;SDS011;54391;50.000;7.360;2022-07-11T09:14:57;22.48;;;12.88;;
39400;SDS011;54391;50.000;7.360;2022-07-11T09:17:26;21.95;;;12.88;;
39400;SDS011;54391;50.000;7.360;2022-07-11T09:19:54;20.40;;;12.63;;
39400;SDS011;54391;50.000;7.360;2022-07-11T09:22:23;22.55;;;13.27;;
39400;SDS011;54391;50.000;7.360;2022-07-11T09:25:09;22.23;;;14.48;;
39400;SDS011;54391;50.000;7.360;2022-07-11T09:27:47;24.23;;;14.13;;
39400;SDS011;54391;50.000;7.360;2022-07-11T09:30:19;23.38;;;14.75;;
39400;SDS011;54391;50.000;7.360;2022-07-11T09:32:53;21.63;;;12.68;;
39400;SDS011;54391;50.000;7.360;2022-07-11T09:35:21;24.00;;;13.60;;
39400;SDS011;54391;50.000;7.360;2022-07-11T09:37:51;27.98;;;14.65;;
39400;SDS011;54391;50.000;7.360;2022-07-11T09:40:19;23.50;;;13.32;;
39400;SDS011;54391;50.000;7.360;2022-07-11T09:42:49;25.80;;;13.18;;
39400;SDS011;54391;50.000;7.360;2022-07-11T09:45:17;22.73;;;13.70;;
39400;SDS011;54391;50.000;7.360;2022-07-11T09:47:45;20.75;;;13.93;;
39400;SDS011;54391;50.000;7.360;2022-07-11T09:50:17;22.42;;;14.70;;
39400;SDS011;54391;50.000;7.360;2022-07-11T09:53:00;21.95;;;13.27;;
39400;SDS011;54391;50.000;7.360;2022-07-11T09:55:28;20.17;;;13.07;;
39400;SDS011;54391;50.000;7.360;2022-07-11T09:57:56;28.30;;;14.27;;
39400;SDS011;54391;50.000;7.360;2022-07-11T10:00:24;23.70;;;14.20;;
39400;SDS011;54391;50.000;7.360;2022-07-11T10:02:52;27.98;;;15.20;;
39400;SDS011;54391;50.000;7.360;2022-07-11T10:05:20;22.25;;;12.68;;
39400;SDS011;54391;50.000;7.360;2022-07-11T10:07:48;21.42;;;13.75;;
39400;SDS011;54391;50.000;7.360;2022-07-11T10:10:18;20.98;;;12.05;;
39400;SDS011;54391;50.000;7.360;2022-07-11T10:12:45;18.55;;;11.68;;
39400;SDS011;54391;50.000;7.360;2022-07-11T10:15:14;22.60;;;12.93;;
39400;SDS011;54391;50.000;7.360;2022-07-11T10:17:46;16.25;;;10.18;;
39400;SDS011;54391;50.000;7.360;2022-07-11T10:20:29;18.35;;;10.65;;
39400;SDS011;54391;50.000;7.360;2022-07-11T10:23:05;16.60;;;10.38;;
39400;SDS011;54391;50.000;7.360;2022-07-11T10:25:43;18.88;;;11.20;;
39400;SDS011;54391;50.000;7.360;2022-07-11T10:28:18;16.52;;;10.63;;
39400;SDS011;54391;50.000;7.360;2022-07-11T10:30:53;18.38;;;10.05;;
39400;SDS011;54391;50.000;7.360;2022-07-11T10:33:31;19.55;;;11.05;;
39400;SDS011;54391;50.000;7.360;2022-07-11T10:35:58;17.02;;;11.07;;
39400;SDS011;54391;50.000;7.360;2022-07-11T10:38:25;19.55;;;10.48;;
39400;SDS011;54391;50.000;7.360;2022-07-11T10:40:55;22.15;;;11.93;;
39400;SDS011;54391;50.000;7.360;2022-07-11T10:43:33;18.88;;;10.88;;
39400;SDS011;54391;50.000;7.360;2022-07-11T10:46:04;17.15;;;10.43;;
39400;SDS011;54391;50.000;7.360;2022-07-11T10:48:33;13.82;;;8.93;;
39400;SDS011;54391;50.000;7.360;2022-07-11T10:51:20;14.70;;;9.20;;
39400;SDS011;54391;50.000;7.360;2022-07-11T10:53:51;13.80;;;9.52;;
39400;SDS011;54391;50.000;7.360;2022-07-11T10:59:18;15.60;;;9.70;;
39400;SDS011;54391;50.000;7.360;2022-07-11T11:02:02;16.30;;;10.02;;
39400;SDS011;54391;50.000;7.360;2022-07-11T11:04:41;17.13;;;9.60;;
39400;SDS011;54391;50.000;7.360;2022-07-11T11:07:32;15.73;;;9.50;;
39400;SDS011;54391;50.000;7.360;2022-07-11T11:10:03;15.45;;;9.45;;
39400;SDS011;54391;50.000;7.360;2022-07-11T11:15:45;14.02;;;8.18;;
39400;SDS011;54391;50.000;7.360;2022-07-11T11:18:30;14.77;;;8.65;;
39400;SDS011;54391;50.000;7.360;2022-07-11T11:21:14;13.88;;;7.93;;
39400;SDS011;54391;50.000;7.360;2022-07-11T11:24:00;13.70;;;8.10;;
39400;SDS011;54391;50.000;7.360;2022-07-11T11:26:42;14.48;;;7.63;;
39400;SDS011;54391;50.000;7.360;2022-07-11T11:29:23;12.18;;;7.07;;
39400;SDS011;54391;50.000;7.360;2022-07-11T11:31:53;14.30;;;9.23;;
39400;SDS011;54391;50.000;7.360;2022-07-11T11:34:22;15.38;;;10.43;;
39400;SDS011;54391;50.000;7.360;2022-07-11T11:39:37;17.30;;;10.15;;
39400;SDS011;54391;50.000;7.360;2022-07-11T11:42:07;16.20;;;10.77;;
39400;SDS011;54391;50.000;7.360;2022-07-11T11:44:48;18.40;;;10.02;;
39400;SDS011;54391;50.000;7.360;2022-07-11T11:47:20;17.65;;;11.07;;
39400;SDS011;54391;50.000;7.360;2022-07-11T11:49:47;14.23;;;9.48;;
39400;SDS011;54391;50.000;7.360;2022-07-11T11:52:15;13.18;;;8.13;;
39400;SDS011;54391;50.000;7.360;2022-07-11T11:54:43;10.30;;;6.68;;
39400;SDS011;54391;50.000;7.360;2022-07-11T11:57:17;11.80;;;7.53;;
39400;SDS011;54391;50.000;7.360;2022-07-11T11:59:49;13.15;;;8.00;;
39400;SDS011;54391;50.000;7.360;2022-07-11T12:02:21;13.45;;;8.15;;
39400;SDS011;54391;50.000;7.360;2022-07-11T12:04:49;14.73;;;8.23;;
39400;SDS011;54391;50.000;7.360;2022-07-11T12:07:27;10.10;;;7.20;;
39400;SDS011;54391;50.000;7.360;2022-07-11T12:09:56;11.27;;;6.88;;
39400;SDS011;54391;50.000;7.360;2022-07-11T12:12:29;11.30;;;7.32;;
39400;SDS011;54391;50.000;7.360;2022-07-11T12:15:28;10.30;;;6.50;;
39400;SDS011;54391;50.000;7.360;2022-07-11T12:18:00;11.68;;;7.20;;
39400;SDS011;54391;50.000;7.360;2022-07-11T12:20:34;12.60;;;7.68;;
39400;SDS011;54391;50.000;7.360;2022-07-11T12:23:06;10.90;;;6.50;;
39400;SDS011;54391;50.000;7.360;2022-07-11T12:25:35;10.73;;;7.40;;
39400;SDS011;54391;50.000;7.360;2022-07-11T12:28:03;10.50;;;7.07;;
39400;SDS011;54391;50.000;7.360;2022-07-11T12:30:34;10.10;;;6.55;;
39400;SDS011;54391;50.000;7.360;2022-07-11T12:33:03;10.02;;;6.40;;
39400;SDS011;54391;50.000;7.360;2022-07-11T12:35:31;13.20;;;6.97;;
39400;SDS011;54391;50.000;7.360;2022-07-11T12:37:59;10.20;;;6.22;;
39400;SDS011;54391;50.000;7.360;2022-07-11T12:40:28;9.98;;;6.68;;
39400;SDS011;54391;50.000;7.360;2022-07-11T12:42:56;10.00;;;6.47;;
39400;SDS011;54391;50.000;7.360;2022-07-11T12:45:23;11.60;;;6.97;;
39400;SDS011;54391;50.000;7.360;2022-07-11T12:47:51;11.48;;;6.82;;
39400;SDS011;54391;50.000;7.360;2022-07-11T12:50:20;10.77;;;6.80;;
39400;SDS011;54391;50.000;7.360;2022-07-11T12:52:49;7.97;;;5.50;;
39400;SDS011;54391;50.000;7.360;2022-07-11T12:55:22;12.88;;;7.15;;
39400;SDS011;54391;50.000;7.360;2022-07-11T12:58:05;12.40;;;7.43;;
39400;SDS011;54391;50.000;7.360;2022-07-11T13:00:34;9.32;;;6.40;;
39400;SDS011;54391;50.000;7.360;2022-07-11T13:03:04;9.88;;;6.93;;
39400;SDS011;54391;50.000;7.360;2022-07-11T13:05:48;12.15;;;6.78;;
39400;SDS011;54391;50.000;7.360;2022-07-11T13:08:22;9.15;;;6.20;;
39400;SDS011;54391;50.000;7.360;2022-07-11T13:11:08;9.95;;;7.05;;
39400;SDS011;54391;50.000;7.360;2022-07-11T13:13:35;10.77;;;6.85;;
39400;SDS011;54391;50.000;7.360;2022-07-11T13:16:04;9.82;;;6.00;;
39400;SDS011;54391;50.000;7.360;2022-07-11T13:18:34;11.07;;;6.53;;
39400;SDS011;54391;50.000;7.360;2022-07-11T13:21:02;10.60;;;6.63;;
39400;SDS011;54391;50.000;7.360;2022-07-11T13:23:31;11.00;;;6.32;;
39400;SDS011;54391;50.000;7.360;2022-07-11T13:25:59;9.55;;;5.85;;
39400;SDS011;54391;50.000;7.360;2022-07-11T13:28:29;9.27;;;5.88;;
39400;SDS011;54391;50.000;7.360;2022-07-11T13:30:56;12.98;;;6.25;;
39400;SDS011;54391;50.000;7.360;2022-07-11T13:33:24;13.43;;;7.10;;
39400;SDS011;54391;50.000;7.360;2022-07-11T13:35:53;9.85;;;5.75;;
39400;SDS011;54391;50.000;7.360;2022-07-11T13:38:21;9.43;;;6.38;;
39400;SDS011;54391;50.000;7.360;2022-07-11T13:40:49;9.07;;;5.88;;
39400;SDS011;54391;50.000;7.360;2022-07-11T13:43:17;12.40;;;7.30;;
39400;SDS011;54391;50.000;7.360;2022-07-11T13:45:44;15.50;;;7.53;;
39400;SDS011;54391;50.000;7.360;2022-07-11T13:48:12;13.50;;;8.18;;
39400;SDS011;54391;50.000;7.360;2022-07-11T13:50:40;12.45;;;7.85;;
39400;SDS011;54391;50.000;7.360;2022-07-11T13:53:10;12.80;;;8.23;;
39400;SDS011;54391;50.000;7.360;2022-07-11T13:55:38;10.85;;;7.57;;
39400;SDS011;54391;50.000;7.360;2022-07-11T13:58:07;13.98;;;8.57;;
39400;SDS011;54391;50.000;7.360;2022-07-11T14:00:50;13.02;;;8.00;;
39400;SDS011;54391;50.000;7.360;2022-07-11T14:03:19;13.05;;;8.45;;
39400;SDS011;54391;50.000;7.360;2022-07-11T14:05:47;13.80;;;7.68;;
39400;SDS011;54391;50.000;7.360;2022-07-11T14:08:16;14.98;;;8.15;;
39400;SDS011;54391;50.000;7.360;2022-07-11T14:10:43;14.52;;;8.20;;
39400;SDS011;54391;50.000;7.360;2022-07-11T14:13:11;13.02;;;8.18;;
39400;SDS011;54391;50.000;7.360;2022-07-11T14:15:38;16.45;;;9.10;;
39400;SDS011;54391;50.000;7.360;2022-07-11T14:18:06;14.27;;;8.57;;
39400;SDS011;54391;50.000;7.360;2022-07-11T14:20:34;18.83;;;9.32;;
39400;SDS011;54391;50.000;7.360;2022-07-11T14:23:02;18.20;;;9.35;;
39400;SDS011;54391;50.000;7.360;2022-07-11T14:25:30;13.80;;;8.75;;
39400;SDS011;54391;50.000;7.360;2022-07-11T14:27:58;14.80;;;9.60;;
39400;SDS011;54391;50.000;7.360;2022-07-11T14:30:27;11.90;;;8.55;;
39400;SDS011;54391;50.000;7.360;2022-07-11T14:32:54;14.10;;;8.02;;
39400;SDS011;54391;50.000;7.360;2022-07-11T14:35:22;15.35;;;8.38;;
39400;SDS011;54391;50.000;7.360;2022-07-11T14:37:49;12.68;;;8.57;;
39400;SDS011;54391;50.000;7.360;2022-07-11T14:40:17;14.50;;;8.85;;
39400;SDS011;54391;50.000;7.360;2022-07-11T14:42:47;12.57;;;8.05;;
39400;SDS011;54391;50.000;7.360;2022-07-11T14:45:16;14.35;;;8.32;;
39400;SDS011;54391;50.000;7.360;2022-07-11T14:47:44;17.75;;;8.73;;
39400;SDS011;54391;50.000;7.360;2022-07-11T14:50:13;14.25;;;9.00;;
39400;SDS011;54391;50.000;7.360;2022-07-11T14:52:40;16.33;;;9.48;;
39400;SDS011;54391;50.000;7.360;2022-07-11T14:55:09;15.57;;;9.52;;
39400;SDS011;54391;50.000;7.360;2022-07-11T14:57:36;13.10;;;9.40;;
39400;SDS011;54391;50.000;7.360;2022-07-11T15:00:06;14.75;;;9.20;;